sensor_id;sensor_type;location;lat;lon;timestamp;P1;durP1;ratioP1;P2;durP2;ratioP2
18459;SDS011;9359;50.932;6.924;2024-01-27T00:02:19;129.57;;;51.63;;
18459;SDS011;9359;50.932;6.924;2024-01-27T00:04:49;108.37;;;48.90;;
18459;SDS011;9359;50.932;6.924;2024-01-27T00:07:20;113.27;;;52.50;;
18459;SDS011;9359;50.932;6.924;2024-01-27T00:09:51;112.73;;;47.67;;
18459;SDS011;9359;50.932;6.924;2024-01-27T00:12:22;125.90;;;51.03;;
18459;SDS011;9359;50.932;6.924;2024-01-27T00:14:54;118.83;;;52.57;;
18459;SDS011;9359;50.932;6.924;2024-01-27T00:17:25;123.17;;;54.70;;
18459;SDS011;9359;50.932;6.924;2024-01-27T00:19:55;125.20;;;55.83;;
18459;SDS011;9359;50.932;6.924;2024-01-27T00:22:26;128.67;;;57.57;;
18459;SDS011;9359;50.932;6.924;2024-01-27T00:24:56;128.13;;;57.47;;
18459;SDS011;9359;50.932;6.924;2024-01-27T00:27:27;142.80;;;58.03;;
18459;SDS011;9359;50.932;6.924;2024-01-27T00:30:00;139.80;;;60.93;;
18459;SDS011;9359;50.932;6.924;2024-01-27T00:32:30;117.80;;;53.67;;
18459;SDS011;9359;50.932;6.924;2024-01-27T00:35:01;123.80;;;54.10;;
18459;SDS011;9359;50.932;6.924;2024-01-27T00:37:32;126.53;;;55.03;;
18459;SDS011;9359;50.932;6.924;2024-01-27T00:40:02;111.17;;;49.80;;
18459;SDS011;9359;50.932;6.924;2024-01-27T00:42:35;104.33;;;46.73;;
18459;SDS011;9359;50.932;6.924;2024-01-27T00:45:08;117.10;;;51.63;;
18459;SDS011;9359;50.932;6.924;2024-01-27T00:47:39;125.10;;;52.90;;
18459;SDS011;9359;50.932;6.924;2024-01-27T00:50:09;116.07;;;54.03;;
18459;SDS011;9359;50.932;6.924;2024-01-27T00:52:40;113.63;;;51.43;;
18459;SDS011;9359;50.932;6.924;2024-01-27T00:55:10;124.77;;;54.23;;
18459;SDS011;9359;50.932;6.924;2024-01-27T00:57:41;148.30;;;64.27;;
18459;SDS011;9359;50.932;6.924;2024-01-27T01:00:14;148.30;;;63.57;;
18459;SDS011;9359;50.932;6.924;2024-01-27T01:02:45;141.00;;;58.53;;
18459;SDS011;9359;50.932;6.924;2024-01-27T01:05:15;126.37;;;53.93;;
18459;SDS011;9359;50.932;6.924;2024-01-27T01:07:46;128.03;;;56.80;;
18459;SDS011;9359;50.932;6.924;2024-01-27T01:10:17;113.60;;;51.00;;
18459;SDS011;9359;50.932;6.924;2024-01-27T01:12:47;119.30;;;53.40;;
18459;SDS011;9359;50.932;6.924;2024-01-27T01:15:19;113.80;;;49.00;;
18459;SDS011;9359;50.932;6.924;2024-01-27T01:17:50;128.53;;;56.87;;
18459;SDS011;9359;50.932;6.924;2024-01-27T01:20:21;117.57;;;50.47;;
18459;SDS011;9359;50.932;6.924;2024-01-27T01:22:52;107.63;;;48.23;;
18459;SDS011;9359;50.932;6.924;2024-01-27T01:25:23;132.93;;;56.07;;
18459;SDS011;9359;50.932;6.924;2024-01-27T01:27:53;100.20;;;44.53;;
18459;SDS011;9359;50.932;6.924;2024-01-27T01:30:26;116.33;;;51.43;;
18459;SDS011;9359;50.932;6.924;2024-01-27T01:32:56;132.80;;;56.13;;
18459;SDS011;9359;50.932;6.924;2024-01-27T01:35:27;124.03;;;53.93;;
18459;SDS011;9359;50.932;6.924;2024-01-27T01:37:57;120.17;;;52.47;;
18459;SDS011;9359;50.932;6.924;2024-01-27T01:40:28;111.30;;;52.07;;
18459;SDS011;9359;50.932;6.924;2024-01-27T01:42:59;104.30;;;46.63;;
18459;SDS011;9359;50.932;6.924;2024-01-27T01:45:32;114.23;;;49.23;;
18459;SDS011;9359;50.932;6.924;2024-01-27T01:48:02;114.37;;;52.37;;
18459;SDS011;9359;50.932;6.924;2024-01-27T01:50:33;106.57;;;46.03;;
18459;SDS011;9359;50.932;6.924;2024-01-27T01:53:04;122.17;;;52.73;;
18459;SDS011;9359;50.932;6.924;2024-01-27T01:55:36;129.23;;;56.07;;
18459;SDS011;9359;50.932;6.924;2024-01-27T01:58:06;123.83;;;54.30;;
18459;SDS011;9359;50.932;6.924;2024-01-27T02:00:39;114.50;;;49.40;;
18459;SDS011;9359;50.932;6.924;2024-01-27T02:03:10;95.80;;;43.00;;
18459;SDS011;9359;50.932;6.924;2024-01-27T02:05:41;100.10;;;43.67;;
18459;SDS011;9359;50.932;6.924;2024-01-27T02:08:11;98.13;;;42.40;;
18459;SDS011;9359;50.932;6.924;2024-01-27T02:10:42;92.83;;;42.07;;
18459;SDS011;9359;50.932;6.924;2024-01-27T02:13:16;90.53;;;41.53;;
18459;SDS011;9359;50.932;6.924;2024-01-27T02:15:49;106.37;;;48.57;;
18459;SDS011;9359;50.932;6.924;2024-01-27T02:18:19;93.17;;;41.17;;
18459;SDS011;9359;50.932;6.924;2024-01-27T02:20:50;98.83;;;41.93;;
18459;SDS011;9359;50.932;6.924;2024-01-27T02:23:21;91.73;;;40.67;;
18459;SDS011;9359;50.932;6.924;2024-01-27T02:25:53;86.77;;;38.93;;
18459;SDS011;9359;50.932;6.924;2024-01-27T02:28:24;92.40;;;40.13;;
18459;SDS011;9359;50.932;6.924;2024-01-27T02:30:58;84.47;;;38.90;;
18459;SDS011;9359;50.932;6.924;2024-01-27T02:33:28;103.60;;;42.27;;
18459;SDS011;9359;50.932;6.924;2024-01-27T02:35:59;90.93;;;40.20;;
18459;SDS011;9359;50.932;6.924;2024-01-27T02:38:29;108.90;;;45.77;;
18459;SDS011;9359;50.932;6.924;2024-01-27T02:41:02;85.40;;;38.70;;
18459;SDS011;9359;50.932;6.924;2024-01-27T02:43:32;75.30;;;35.30;;
18459;SDS011;9359;50.932;6.924;2024-01-27T02:46:05;95.30;;;40.53;;
18459;SDS011;9359;50.932;6.924;2024-01-27T02:48:39;87.43;;;36.37;;
18459;SDS011;9359;50.932;6.924;2024-01-27T02:51:10;82.00;;;35.70;;
18459;SDS011;9359;50.932;6.924;2024-01-27T02:53:41;78.53;;;32.97;;
18459;SDS011;9359;50.932;6.924;2024-01-27T02:56:13;80.73;;;35.73;;
18459;SDS011;9359;50.932;6.924;2024-01-27T02:58:46;78.57;;;34.63;;
18459;SDS011;9359;50.932;6.924;2024-01-27T03:01:16;75.83;;;34.23;;
18459;SDS011;9359;50.932;6.924;2024-01-27T03:03:46;85.73;;;36.67;;
18459;SDS011;9359;50.932;6.924;2024-01-27T03:06:17;80.57;;;33.87;;
18459;SDS011;9359;50.932;6.924;2024-01-27T03:08:48;79.93;;;33.67;;
18459;SDS011;9359;50.932;6.924;2024-01-27T03:11:20;75.77;;;33.97;;
18459;SDS011;9359;50.932;6.924;2024-01-27T03:13:51;75.70;;;33.60;;
18459;SDS011;9359;50.932;6.924;2024-01-27T03:16:21;77.30;;;30.97;;
18459;SDS011;9359;50.932;6.924;2024-01-27T03:18:52;74.20;;;34.20;;
18459;SDS011;9359;50.932;6.924;2024-01-27T03:21:23;89.30;;;39.50;;
18459;SDS011;9359;50.932;6.924;2024-01-27T03:23:53;75.27;;;35.03;;
18459;SDS011;9359;50.932;6.924;2024-01-27T03:26:26;76.57;;;34.67;;
18459;SDS011;9359;50.932;6.924;2024-01-27T03:28:56;74.13;;;32.20;;
18459;SDS011;9359;50.932;6.924;2024-01-27T03:31:30;72.77;;;31.20;;
18459;SDS011;9359;50.932;6.924;2024-01-27T03:34:01;72.93;;;31.27;;
18459;SDS011;9359;50.932;6.924;2024-01-27T03:36:31;81.67;;;33.93;;
18459;SDS011;9359;50.932;6.924;2024-01-27T03:39:02;86.40;;;33.30;;
18459;SDS011;9359;50.932;6.924;2024-01-27T03:41:36;75.27;;;33.57;;
18459;SDS011;9359;50.932;6.924;2024-01-27T03:44:06;79.70;;;31.90;;
18459;SDS011;9359;50.932;6.924;2024-01-27T03:46:39;66.13;;;30.13;;
18459;SDS011;9359;50.932;6.924;2024-01-27T03:49:11;72.77;;;29.33;;
18459;SDS011;9359;50.932;6.924;2024-01-27T03:51:42;68.63;;;27.27;;
18459;SDS011;9359;50.932;6.924;2024-01-27T03:54:13;52.37;;;22.07;;
18459;SDS011;9359;50.932;6.924;2024-01-27T03:56:45;55.60;;;22.53;;
18459;SDS011;9359;50.932;6.924;2024-01-27T03:59:16;73.57;;;23.17;;
18459;SDS011;9359;50.932;6.924;2024-01-27T04:01:47;61.03;;;22.50;;
18459;SDS011;9359;50.932;6.924;2024-01-27T04:04:17;63.00;;;22.73;;
18459;SDS011;9359;50.932;6.924;2024-01-27T04:06:48;56.73;;;23.57;;
18459;SDS011;9359;50.932;6.924;2024-01-27T04:09:18;61.70;;;23.60;;
18459;SDS011;9359;50.932;6.924;2024-01-27T04:11:50;60.50;;;26.17;;
18459;SDS011;9359;50.932;6.924;2024-01-27T04:14:21;69.20;;;26.80;;
18459;SDS011;9359;50.932;6.924;2024-01-27T04:16:52;64.17;;;26.50;;
18459;SDS011;9359;50.932;6.924;2024-01-27T04:19:22;71.13;;;28.37;;
18459;SDS011;9359;50.932;6.924;2024-01-27T04:21:53;73.00;;;27.80;;
18459;SDS011;9359;50.932;6.924;2024-01-27T04:24:23;62.73;;;26.17;;
18459;SDS011;9359;50.932;6.924;2024-01-27T04:26:56;60.33;;;25.53;;
18459;SDS011;9359;50.932;6.924;2024-01-27T04:29:28;67.97;;;27.07;;
18459;SDS011;9359;50.932;6.924;2024-01-27T04:31:58;77.00;;;28.97;;
18459;SDS011;9359;50.932;6.924;2024-01-27T04:34:29;69.80;;;27.83;;
18459;SDS011;9359;50.932;6.924;2024-01-27T04:37:01;68.07;;;26.43;;
18459;SDS011;9359;50.932;6.924;2024-01-27T04:39:31;61.20;;;24.70;;
18459;SDS011;9359;50.932;6.924;2024-01-27T04:42:04;70.67;;;26.50;;
18459;SDS011;9359;50.932;6.924;2024-01-27T04:44:35;69.33;;;26.47;;
18459;SDS011;9359;50.932;6.924;2024-01-27T04:47:09;59.13;;;22.83;;
18459;SDS011;9359;50.932;6.924;2024-01-27T04:49:39;64.77;;;25.23;;
18459;SDS011;9359;50.932;6.924;2024-01-27T04:52:10;67.87;;;26.77;;
18459;SDS011;9359;50.932;6.924;2024-01-27T04:54:40;65.53;;;24.53;;
18459;SDS011;9359;50.932;6.924;2024-01-27T04:57:13;54.13;;;22.80;;
18459;SDS011;9359;50.932;6.924;2024-01-27T04:59:43;53.43;;;21.77;;
18459;SDS011;9359;50.932;6.924;2024-01-27T05:02:14;67.77;;;24.53;;
18459;SDS011;9359;50.932;6.924;2024-01-27T05:04:45;65.30;;;25.73;;
18459;SDS011;9359;50.932;6.924;2024-01-27T05:07:15;60.07;;;23.93;;
18459;SDS011;9359;50.932;6.924;2024-01-27T05:09:46;64.90;;;25.03;;
18459;SDS011;9359;50.932;6.924;2024-01-27T05:12:18;52.10;;;22.63;;
18459;SDS011;9359;50.932;6.924;2024-01-27T05:14:49;55.77;;;23.10;;
18459;SDS011;9359;50.932;6.924;2024-01-27T05:17:19;61.37;;;24.30;;
18459;SDS011;9359;50.932;6.924;2024-01-27T05:19:50;57.00;;;24.17;;
18459;SDS011;9359;50.932;6.924;2024-01-27T05:22:20;71.03;;;27.90;;
18459;SDS011;9359;50.932;6.924;2024-01-27T05:24:50;69.50;;;28.07;;
18459;SDS011;9359;50.932;6.924;2024-01-27T05:27:23;68.23;;;27.40;;
18459;SDS011;9359;50.932;6.924;2024-01-27T05:29:53;76.97;;;29.83;;
18459;SDS011;9359;50.932;6.924;2024-01-27T05:32:23;70.23;;;28.50;;
18459;SDS011;9359;50.932;6.924;2024-01-27T05:34:54;73.33;;;29.77;;
18459;SDS011;9359;50.932;6.924;2024-01-27T05:37:24;75.20;;;28.63;;
18459;SDS011;9359;50.932;6.924;2024-01-27T05:39:55;89.30;;;29.87;;
18459;SDS011;9359;50.932;6.924;2024-01-27T05:42:27;70.20;;;29.93;;
18459;SDS011;9359;50.932;6.924;2024-01-27T05:44:58;73.90;;;29.13;;
18459;SDS011;9359;50.932;6.924;2024-01-27T05:47:28;68.80;;;28.43;;
18459;SDS011;9359;50.932;6.924;2024-01-27T05:49:59;75.47;;;30.93;;
18459;SDS011;9359;50.932;6.924;2024-01-27T05:52:30;78.73;;;29.43;;
18459;SDS011;9359;50.932;6.924;2024-01-27T05:55:01;64.40;;;28.27;;
18459;SDS011;9359;50.932;6.924;2024-01-27T05:57:34;63.80;;;26.33;;
18459;SDS011;9359;50.932;6.924;2024-01-27T06:00:05;66.17;;;25.10;;
18459;SDS011;9359;50.932;6.924;2024-01-27T06:02:37;59.63;;;24.90;;
18459;SDS011;9359;50.932;6.924;2024-01-27T06:05:07;49.57;;;21.27;;
18459;SDS011;9359;50.932;6.924;2024-01-27T06:07:38;47.00;;;19.23;;
18459;SDS011;9359;50.932;6.924;2024-01-27T06:10:09;49.83;;;18.40;;
18459;SDS011;9359;50.932;6.924;2024-01-27T06:12:42;42.97;;;16.93;;
18459;SDS011;9359;50.932;6.924;2024-01-27T06:15:12;34.33;;;15.03;;
18459;SDS011;9359;50.932;6.924;2024-01-27T06:17:43;43.70;;;16.07;;
18459;SDS011;9359;50.932;6.924;2024-01-27T06:20:14;32.77;;;13.07;;
18459;SDS011;9359;50.932;6.924;2024-01-27T06:22:45;34.43;;;12.30;;
18459;SDS011;9359;50.932;6.924;2024-01-27T06:25:15;40.53;;;14.40;;
18459;SDS011;9359;50.932;6.924;2024-01-27T06:27:48;41.27;;;13.07;;
18459;SDS011;9359;50.932;6.924;2024-01-27T06:30:18;36.77;;;13.90;;
18459;SDS011;9359;50.932;6.924;2024-01-27T06:32:49;35.07;;;12.87;;
18459;SDS011;9359;50.932;6.924;2024-01-27T06:35:20;35.10;;;12.47;;
18459;SDS011;9359;50.932;6.924;2024-01-27T06:37:50;25.97;;;11.20;;
18459;SDS011;9359;50.932;6.924;2024-01-27T06:40:21;37.83;;;12.97;;
18459;SDS011;9359;50.932;6.924;2024-01-27T06:42:54;47.87;;;15.00;;
18459;SDS011;9359;50.932;6.924;2024-01-27T06:45:27;40.17;;;14.20;;
18459;SDS011;9359;50.932;6.924;2024-01-27T06:47:57;28.70;;;12.13;;
18459;SDS011;9359;50.932;6.924;2024-01-27T06:50:28;41.37;;;13.47;;
18459;SDS011;9359;50.932;6.924;2024-01-27T06:52:58;36.10;;;13.17;;
18459;SDS011;9359;50.932;6.924;2024-01-27T06:55:29;37.43;;;13.33;;
18459;SDS011;9359;50.932;6.924;2024-01-27T06:58:01;43.73;;;13.20;;
18459;SDS011;9359;50.932;6.924;2024-01-27T07:00:32;45.10;;;14.60;;
18459;SDS011;9359;50.932;6.924;2024-01-27T07:03:03;52.70;;;17.40;;
18459;SDS011;9359;50.932;6.924;2024-01-27T07:05:34;45.70;;;15.13;;
18459;SDS011;9359;50.932;6.924;2024-01-27T07:08:07;48.83;;;16.27;;
18459;SDS011;9359;50.932;6.924;2024-01-27T07:10:37;47.13;;;16.23;;
18459;SDS011;9359;50.932;6.924;2024-01-27T07:13:10;39.57;;;15.43;;
18459;SDS011;9359;50.932;6.924;2024-01-27T07:15:41;40.87;;;16.90;;
18459;SDS011;9359;50.932;6.924;2024-01-27T07:18:11;50.53;;;16.23;;
18459;SDS011;9359;50.932;6.924;2024-01-27T07:20:43;47.00;;;17.10;;
18459;SDS011;9359;50.932;6.924;2024-01-27T07:23:14;47.63;;;16.60;;
18459;SDS011;9359;50.932;6.924;2024-01-27T07:25:44;36.17;;;14.90;;
18459;SDS011;9359;50.932;6.924;2024-01-27T07:28:16;49.70;;;18.00;;
18459;SDS011;9359;50.932;6.924;2024-01-27T07:30:47;46.60;;;16.20;;
18459;SDS011;9359;50.932;6.924;2024-01-27T07:33:18;49.10;;;16.73;;
18459;SDS011;9359;50.932;6.924;2024-01-27T07:35:48;40.00;;;15.77;;
18459;SDS011;9359;50.932;6.924;2024-01-27T07:38:19;40.67;;;14.40;;
18459;SDS011;9359;50.932;6.924;2024-01-27T07:40:49;40.20;;;12.57;;
18459;SDS011;9359;50.932;6.924;2024-01-27T07:43:22;30.13;;;11.47;;
18459;SDS011;9359;50.932;6.924;2024-01-27T07:45:54;32.40;;;11.30;;
18459;SDS011;9359;50.932;6.924;2024-01-27T07:48:24;24.07;;;10.37;;
18459;SDS011;9359;50.932;6.924;2024-01-27T07:50:55;42.17;;;13.30;;
18459;SDS011;9359;50.932;6.924;2024-01-27T07:53:25;44.57;;;14.70;;
18459;SDS011;9359;50.932;6.924;2024-01-27T07:55:56;39.23;;;13.50;;
18459;SDS011;9359;50.932;6.924;2024-01-27T07:58:28;34.47;;;13.57;;
18459;SDS011;9359;50.932;6.924;2024-01-27T08:00:59;37.70;;;14.47;;
18459;SDS011;9359;50.932;6.924;2024-01-27T08:03:29;37.33;;;13.97;;
18459;SDS011;9359;50.932;6.924;2024-01-27T08:06:03;36.40;;;13.20;;
18459;SDS011;9359;50.932;6.924;2024-01-27T08:08:36;43.97;;;13.00;;
18459;SDS011;9359;50.932;6.924;2024-01-27T08:11:06;44.30;;;15.73;;
18459;SDS011;9359;50.932;6.924;2024-01-27T08:13:38;44.47;;;14.60;;
18459;SDS011;9359;50.932;6.924;2024-01-27T08:16:09;37.33;;;12.40;;
18459;SDS011;9359;50.932;6.924;2024-01-27T08:18:40;39.13;;;13.87;;
18459;SDS011;9359;50.932;6.924;2024-01-27T08:21:12;45.67;;;14.17;;
18459;SDS011;9359;50.932;6.924;2024-01-27T08:23:42;41.27;;;12.50;;
18459;SDS011;9359;50.932;6.924;2024-01-27T08:26:12;32.47;;;10.07;;
18459;SDS011;9359;50.932;6.924;2024-01-27T08:28:46;24.90;;;8.33;;
18459;SDS011;9359;50.932;6.924;2024-01-27T08:31:17;27.80;;;9.07;;
18459;SDS011;9359;50.932;6.924;2024-01-27T08:33:47;21.23;;;8.73;;
18459;SDS011;9359;50.932;6.924;2024-01-27T08:36:18;25.63;;;7.90;;
18459;SDS011;9359;50.932;6.924;2024-01-27T08:38:48;27.07;;;9.37;;
18459;SDS011;9359;50.932;6.924;2024-01-27T08:41:19;25.83;;;8.80;;
18459;SDS011;9359;50.932;6.924;2024-01-27T08:43:51;30.43;;;10.33;;
18459;SDS011;9359;50.932;6.924;2024-01-27T08:46:22;28.30;;;8.77;;
18459;SDS011;9359;50.932;6.924;2024-01-27T08:48:52;22.20;;;8.20;;
18459;SDS011;9359;50.932;6.924;2024-01-27T08:51:23;23.00;;;8.97;;
18459;SDS011;9359;50.932;6.924;2024-01-27T08:53:53;26.40;;;9.13;;
18459;SDS011;9359;50.932;6.924;2024-01-27T08:56:24;24.20;;;9.03;;
18459;SDS011;9359;50.932;6.924;2024-01-27T08:58:56;24.47;;;9.33;;
18459;SDS011;9359;50.932;6.924;2024-01-27T09:01:27;26.70;;;8.47;;
18459;SDS011;9359;50.932;6.924;2024-01-27T09:03:57;27.90;;;9.30;;
18459;SDS011;9359;50.932;6.924;2024-01-27T09:06:28;26.37;;;9.47;;
18459;SDS011;9359;50.932;6.924;2024-01-27T09:08:59;29.07;;;10.30;;
18459;SDS011;9359;50.932;6.924;2024-01-27T09:11:29;29.90;;;10.13;;
18459;SDS011;9359;50.932;6.924;2024-01-27T09:14:02;28.53;;;11.10;;
18459;SDS011;9359;50.932;6.924;2024-01-27T09:16:33;25.30;;;9.43;;
18459;SDS011;9359;50.932;6.924;2024-01-27T09:19:03;24.93;;;9.57;;
18459;SDS011;9359;50.932;6.924;2024-01-27T09:21:34;28.23;;;10.10;;
18459;SDS011;9359;50.932;6.924;2024-01-27T09:24:04;34.77;;;11.17;;
18459;SDS011;9359;50.932;6.924;2024-01-27T09:26:35;33.73;;;11.20;;
18459;SDS011;9359;50.932;6.924;2024-01-27T09:29:07;22.87;;;9.60;;
18459;SDS011;9359;50.932;6.924;2024-01-27T09:31:38;25.87;;;10.60;;
18459;SDS011;9359;50.932;6.924;2024-01-27T09:34:08;31.97;;;9.93;;
18459;SDS011;9359;50.932;6.924;2024-01-27T09:36:39;20.20;;;8.97;;
18459;SDS011;9359;50.932;6.924;2024-01-27T09:39:09;26.97;;;9.30;;
18459;SDS011;9359;50.932;6.924;2024-01-27T09:41:40;26.57;;;9.43;;
18459;SDS011;9359;50.932;6.924;2024-01-27T09:44:12;24.80;;;9.50;;
18459;SDS011;9359;50.932;6.924;2024-01-27T09:46:46;23.70;;;9.17;;
18459;SDS011;9359;50.932;6.924;2024-01-27T09:49:17;27.00;;;8.67;;
18459;SDS011;9359;50.932;6.924;2024-01-27T09:51:48;37.53;;;8.57;;
18459;SDS011;9359;50.932;6.924;2024-01-27T09:54:19;19.87;;;8.37;;
18459;SDS011;9359;50.932;6.924;2024-01-27T09:56:49;20.10;;;7.93;;
18459;SDS011;9359;50.932;6.924;2024-01-27T09:59:23;20.93;;;7.67;;
18459;SDS011;9359;50.932;6.924;2024-01-27T10:01:54;23.43;;;8.27;;
18459;SDS011;9359;50.932;6.924;2024-01-27T10:04:26;26.60;;;8.97;;
18459;SDS011;9359;50.932;6.924;2024-01-27T10:06:57;20.80;;;8.30;;
18459;SDS011;9359;50.932;6.924;2024-01-27T10:09:28;27.40;;;8.23;;
18459;SDS011;9359;50.932;6.924;2024-01-27T10:11:59;23.27;;;8.07;;
18459;SDS011;9359;50.932;6.924;2024-01-27T10:14:39;19.53;;;8.43;;
18459;SDS011;9359;50.932;6.924;2024-01-27T10:17:11;23.97;;;8.53;;
18459;SDS011;9359;50.932;6.924;2024-01-27T10:19:58;18.90;;;7.40;;
18459;SDS011;9359;50.932;6.924;2024-01-27T10:22:36;22.20;;;7.93;;
18459;SDS011;9359;50.932;6.924;2024-01-27T10:25:07;16.67;;;7.30;;
18459;SDS011;9359;50.932;6.924;2024-01-27T10:27:38;27.40;;;7.63;;
18459;SDS011;9359;50.932;6.924;2024-01-27T10:30:15;20.20;;;7.53;;
18459;SDS011;9359;50.932;6.924;2024-01-27T10:32:54;19.70;;;8.07;;
18459;SDS011;9359;50.932;6.924;2024-01-27T10:35:25;19.93;;;7.97;;
18459;SDS011;9359;50.932;6.924;2024-01-27T10:37:56;25.53;;;6.77;;
18459;SDS011;9359;50.932;6.924;2024-01-27T10:40:26;15.57;;;6.03;;
18459;SDS011;9359;50.932;6.924;2024-01-27T10:43:00;16.67;;;6.67;;
18459;SDS011;9359;50.932;6.924;2024-01-27T10:48:21;14.30;;;5.63;;
18459;SDS011;9359;50.932;6.924;2024-01-27T10:50:54;16.47;;;6.73;;
18459;SDS011;9359;50.932;6.924;2024-01-27T10:53:26;23.07;;;6.53;;
18459;SDS011;9359;50.932;6.924;2024-01-27T10:56:01;18.03;;;7.17;;
18459;SDS011;9359;50.932;6.924;2024-01-27T10:58:35;15.87;;;7.40;;
18459;SDS011;9359;50.932;6.924;2024-01-27T11:01:10;14.70;;;6.20;;
18459;SDS011;9359;50.932;6.924;2024-01-27T11:03:42;16.60;;;6.67;;
18459;SDS011;9359;50.932;6.924;2024-01-27T11:06:13;12.80;;;6.23;;
18459;SDS011;9359;50.932;6.924;2024-01-27T11:08:44;9.50;;;5.43;;
18459;SDS011;9359;50.932;6.924;2024-01-27T11:11:16;16.53;;;6.47;;
18459;SDS011;9359;50.932;6.924;2024-01-27T11:13:47;17.57;;;5.93;;
18459;SDS011;9359;50.932;6.924;2024-01-27T11:16:19;14.67;;;5.80;;
18459;SDS011;9359;50.932;6.924;2024-01-27T11:18:51;15.17;;;5.03;;
18459;SDS011;9359;50.932;6.924;2024-01-27T11:21:22;12.13;;;4.70;;
18459;SDS011;9359;50.932;6.924;2024-01-27T11:23:53;9.77;;;4.37;;
18459;SDS011;9359;50.932;6.924;2024-01-27T11:26:23;9.80;;;4.73;;
18459;SDS011;9359;50.932;6.924;2024-01-27T11:28:54;15.87;;;5.47;;
18459;SDS011;9359;50.932;6.924;2024-01-27T11:31:39;12.20;;;5.40;;
18459;SDS011;9359;50.932;6.924;2024-01-27T11:34:10;13.73;;;5.73;;
18459;SDS011;9359;50.932;6.924;2024-01-27T11:36:43;16.43;;;5.83;;
18459;SDS011;9359;50.932;6.924;2024-01-27T11:39:26;16.47;;;5.83;;
18459;SDS011;9359;50.932;6.924;2024-01-27T11:42:06;12.20;;;5.47;;
18459;SDS011;9359;50.932;6.924;2024-01-27T11:44:38;14.17;;;5.27;;
18459;SDS011;9359;50.932;6.924;2024-01-27T11:47:15;12.13;;;5.10;;
18459;SDS011;9359;50.932;6.924;2024-01-27T11:49:50;14.27;;;5.80;;
18459;SDS011;9359;50.932;6.924;2024-01-27T11:52:23;22.13;;;8.20;;
18459;SDS011;9359;50.932;6.924;2024-01-27T11:54:54;23.00;;;7.27;;
18459;SDS011;9359;50.932;6.924;2024-01-27T11:57:25;14.67;;;5.87;;
18459;SDS011;9359;50.932;6.924;2024-01-27T11:59:56;12.53;;;5.57;;
18459;SDS011;9359;50.932;6.924;2024-01-27T12:02:29;11.17;;;4.97;;
18459;SDS011;9359;50.932;6.924;2024-01-27T12:04:59;18.47;;;5.77;;
18459;SDS011;9359;50.932;6.924;2024-01-27T12:07:29;14.20;;;5.70;;
18459;SDS011;9359;50.932;6.924;2024-01-27T12:10:00;19.47;;;6.17;;
18459;SDS011;9359;50.932;6.924;2024-01-27T12:12:30;12.77;;;6.33;;
18459;SDS011;9359;50.932;6.924;2024-01-27T12:15:01;15.67;;;6.03;;
18459;SDS011;9359;50.932;6.924;2024-01-27T12:17:33;17.17;;;6.07;;
18459;SDS011;9359;50.932;6.924;2024-01-27T12:20:05;15.40;;;5.83;;
18459;SDS011;9359;50.932;6.924;2024-01-27T12:22:44;11.63;;;5.17;;
18459;SDS011;9359;50.932;6.924;2024-01-27T12:25:15;15.10;;;4.83;;
18459;SDS011;9359;50.932;6.924;2024-01-27T12:27:46;13.13;;;5.30;;
18459;SDS011;9359;50.932;6.924;2024-01-27T12:30:16;20.07;;;5.30;;
18459;SDS011;9359;50.932;6.924;2024-01-27T12:32:49;11.33;;;5.00;;
18459;SDS011;9359;50.932;6.924;2024-01-27T12:35:20;12.33;;;4.97;;
18459;SDS011;9359;50.932;6.924;2024-01-27T12:37:53;23.80;;;6.10;;
18459;SDS011;9359;50.932;6.924;2024-01-27T12:40:24;16.77;;;6.00;;
18459;SDS011;9359;50.932;6.924;2024-01-27T12:42:55;18.60;;;6.27;;
18459;SDS011;9359;50.932;6.924;2024-01-27T12:45:27;17.00;;;6.50;;
18459;SDS011;9359;50.932;6.924;2024-01-27T12:48:03;17.40;;;6.47;;
18459;SDS011;9359;50.932;6.924;2024-01-27T12:50:33;22.47;;;7.57;;
18459;SDS011;9359;50.932;6.924;2024-01-27T12:53:04;27.50;;;7.40;;
18459;SDS011;9359;50.932;6.924;2024-01-27T12:55:34;31.47;;;7.53;;
18459;SDS011;9359;50.932;6.924;2024-01-27T12:58:05;21.10;;;7.33;;
18459;SDS011;9359;50.932;6.924;2024-01-27T13:00:36;19.47;;;6.97;;
18459;SDS011;9359;50.932;6.924;2024-01-27T13:03:12;16.87;;;6.80;;
18459;SDS011;9359;50.932;6.924;2024-01-27T13:05:42;23.70;;;7.67;;
18459;SDS011;9359;50.932;6.924;2024-01-27T13:08:13;17.17;;;7.20;;
18459;SDS011;9359;50.932;6.924;2024-01-27T13:10:43;18.23;;;6.93;;
18459;SDS011;9359;50.932;6.924;2024-01-27T13:13:14;24.27;;;7.57;;
18459;SDS011;9359;50.932;6.924;2024-01-27T13:15:45;20.50;;;7.00;;
18459;SDS011;9359;50.932;6.924;2024-01-27T13:18:17;19.60;;;7.70;;
18459;SDS011;9359;50.932;6.924;2024-01-27T13:20:48;17.23;;;7.60;;
18459;SDS011;9359;50.932;6.924;2024-01-27T13:23:18;15.13;;;7.03;;
18459;SDS011;9359;50.932;6.924;2024-01-27T13:25:48;17.87;;;6.70;;
18459;SDS011;9359;50.932;6.924;2024-01-27T13:28:19;23.80;;;7.67;;
18459;SDS011;9359;50.932;6.924;2024-01-27T13:30:49;23.40;;;8.87;;
18459;SDS011;9359;50.932;6.924;2024-01-27T13:33:22;26.87;;;8.80;;
18459;SDS011;9359;50.932;6.924;2024-01-27T13:35:54;26.33;;;9.17;;
18459;SDS011;9359;50.932;6.924;2024-01-27T13:38:25;24.77;;;9.17;;
18459;SDS011;9359;50.932;6.924;2024-01-27T13:40:55;49.23;;;9.37;;
18459;SDS011;9359;50.932;6.924;2024-01-27T13:43:26;32.03;;;9.33;;
18459;SDS011;9359;50.932;6.924;2024-01-27T13:45:57;26.03;;;9.03;;
18459;SDS011;9359;50.932;6.924;2024-01-27T13:48:30;30.53;;;9.97;;
18459;SDS011;9359;50.932;6.924;2024-01-27T13:51:01;34.13;;;9.63;;
18459;SDS011;9359;50.932;6.924;2024-01-27T13:53:32;25.47;;;8.60;;
18459;SDS011;9359;50.932;6.924;2024-01-27T13:56:03;39.20;;;9.77;;
18459;SDS011;9359;50.932;6.924;2024-01-27T13:58:34;38.43;;;10.00;;
18459;SDS011;9359;50.932;6.924;2024-01-27T14:01:05;32.40;;;10.23;;
18459;SDS011;9359;50.932;6.924;2024-01-27T14:03:38;25.50;;;9.57;;
18459;SDS011;9359;50.932;6.924;2024-01-27T14:06:08;23.83;;;9.23;;
18459;SDS011;9359;50.932;6.924;2024-01-27T14:08:39;32.63;;;10.30;;
18459;SDS011;9359;50.932;6.924;2024-01-27T14:11:09;34.33;;;9.93;;
18459;SDS011;9359;50.932;6.924;2024-01-27T14:13:41;28.17;;;8.93;;
18459;SDS011;9359;50.932;6.924;2024-01-27T14:16:11;34.73;;;9.83;;
18459;SDS011;9359;50.932;6.924;2024-01-27T14:18:44;30.90;;;9.60;;
18459;SDS011;9359;50.932;6.924;2024-01-27T14:21:14;22.10;;;9.03;;
18459;SDS011;9359;50.932;6.924;2024-01-27T14:23:45;24.60;;;8.27;;
18459;SDS011;9359;50.932;6.924;2024-01-27T14:26:15;23.50;;;9.37;;
18459;SDS011;9359;50.932;6.924;2024-01-27T14:28:46;25.57;;;10.03;;
18459;SDS011;9359;50.932;6.924;2024-01-27T14:31:17;30.77;;;9.97;;
18459;SDS011;9359;50.932;6.924;2024-01-27T14:33:50;28.30;;;9.87;;
18459;SDS011;9359;50.932;6.924;2024-01-27T14:36:20;29.47;;;9.67;;
18459;SDS011;9359;50.932;6.924;2024-01-27T14:38:51;29.70;;;10.37;;
18459;SDS011;9359;50.932;6.924;2024-01-27T14:41:22;24.30;;;9.63;;
18459;SDS011;9359;50.932;6.924;2024-01-27T14:43:52;18.70;;;9.17;;
18459;SDS011;9359;50.932;6.924;2024-01-27T14:46:23;26.60;;;10.57;;
18459;SDS011;9359;50.932;6.924;2024-01-27T14:48:55;27.27;;;10.37;;
18459;SDS011;9359;50.932;6.924;2024-01-27T14:51:26;26.47;;;11.03;;
18459;SDS011;9359;50.932;6.924;2024-01-27T14:53:56;25.93;;;10.57;;
18459;SDS011;9359;50.932;6.924;2024-01-27T14:56:30;29.20;;;10.50;;
18459;SDS011;9359;50.932;6.924;2024-01-27T14:59:00;31.97;;;11.23;;
18459;SDS011;9359;50.932;6.924;2024-01-27T15:01:33;33.80;;;11.63;;
18459;SDS011;9359;50.932;6.924;2024-01-27T15:04:06;24.10;;;11.00;;
18459;SDS011;9359;50.932;6.924;2024-01-27T15:06:37;26.93;;;11.73;;